Time;durP1;ratioP1;P1;durP2;ratioP2;P2;SDS_P1;SDS_P2;PMS_P1;PMS_P2;Temp;Humidity;BMP_temperature;BMP_pressure;BME280_temperature;BME280_humidity;BME280_pressure;Samples;Min_cycle;Max_cycle;Signal;HPM_P1;HPM_P2
2023/06/12 00:01:31;;;;;;;15.52;11.32;;;;;;;;;;5027855;28;20060;-70
2023/06/12 00:03:57;;;;;;;16.00;11.82;;;;;;;;;;5026613;28;20053;-69
2023/06/12 00:06:23;;;;;;;15.85;10.85;;;;;;;;;;5026984;28;20041;-70
2023/06/12 00:08:49;;;;;;;17.08;11.75;;;;;;;;;;5026925;28;20766;-70
2023/06/12 00:11:16;;;;;;;18.27;11.25;;;;;;;;;;5024871;28;20017;-70
2023/06/12 00:13:43;;;;;;;17.65;10.77;;;;;;;;;;5027332;28;20426;-70
2023/06/12 00:16:10;;;;;;;12.20;8.40;;;;;;;;;;5025552;28;20029;-70
2023/06/12 00:18:35;;;;;;;13.25;8.25;;;;;;;;;;5026112;28;20032;-70
2023/06/12 00:21:02;;;;;;;18.65;9.35;;;;;;;;;;5027011;28;20026;-70
2023/06/12 00:23:28;;;;;;;14.70;8.10;;;;;;;;;;5026710;28;20422;-70
2023/06/12 00:25:53;;;;;;;13.88;8.85;;;;;;;;;;5024872;28;20546;-70
2023/06/12 00:28:18;;;;;;;11.02;8.88;;;;;;;;;;5027006;28;20037;-69
2023/06/12 00:30:43;;;;;;;15.05;9.20;;;;;;;;;;5027122;28;20025;-70
2023/06/12 00:33:09;;;;;;;15.43;9.73;;;;;;;;;;5020259;28;20037;-70
2023/06/12 00:35:34;;;;;;;12.75;8.95;;;;;;;;;;5026416;28;20033;-70
2023/06/12 00:38:00;;;;;;;13.48;9.25;;;;;;;;;;5022860;28;20033;-70
2023/06/12 00:40:26;;;;;;;13.75;9.18;;;;;;;;;;5023307;28;20029;-70
2023/06/12 00:42:51;;;;;;;17.90;11.18;;;;;;;;;;5022774;28;20040;-70
2023/06/12 00:45:18;;;;;;;12.30;9.02;;;;;;;;;;5027077;28;20029;-70
2023/06/12 00:47:56;;;;;;;12.15;8.80;;;;;;;;;;5026686;28;20033;-70
2023/06/12 00:50:27;;;;;;;10.00;6.28;;;;;;;;;;5027087;28;20127;-70
2023/06/12 00:52:54;;;;;;;11.35;7.78;;;;;;;;;;5029541;28;20403;-70
2023/06/12 00:55:20;;;;;;;13.07;8.63;;;;;;;;;;5034337;28;20045;-70
2023/06/12 00:57:47;;;;;;;11.70;9.02;;;;;;;;;;5034150;28;20029;-70
2023/06/12 01:00:14;;;;;;;10.55;7.32;;;;;;;;;;5027114;28;20109;-70
2023/06/12 01:02:54;;;;;;;13.70;9.07;;;;;;;;;;5025859;28;20029;-70
2023/06/12 01:05:32;;;;;;;13.07;8.68;;;;;;;;;;5026372;28;20128;-70
2023/06/12 01:08:16;;;;;;;13.63;9.30;;;;;;;;;;5026157;28;20029;-70
2023/06/12 01:10:48;;;;;;;14.32;10.18;;;;;;;;;;5026448;28;20057;-70
2023/06/12 01:13:16;;;;;;;18.42;11.10;;;;;;;;;;5023782;28;20040;-69
2023/06/12 01:15:41;;;;;;;16.52;11.48;;;;;;;;;;5025390;28;20025;-70
2023/06/12 01:18:07;;;;;;;15.90;11.40;;;;;;;;;;5026397;28;20120;-70
2023/06/12 01:20:34;;;;;;;15.95;10.95;;;;;;;;;;5025392;28;20037;-70
2023/06/12 01:23:03;;;;;;;17.08;11.95;;;;;;;;;;5023922;28;20022;-70
2023/06/12 01:25:50;;;;;;;15.57;11.00;;;;;;;;;;5026135;28;20025;-70
2023/06/12 01:28:25;;;;;;;15.23;10.73;;;;;;;;;;5025869;28;20033;-70
2023/06/12 01:31:08;;;;;;;13.60;10.07;;;;;;;;;;5025536;28;20017;-69
2023/06/12 01:33:38;;;;;;;13.70;9.63;;;;;;;;;;5023897;28;20119;-70
2023/06/12 01:36:10;;;;;;;18.13;12.43;;;;;;;;;;5023426;28;20137;-70
2023/06/12 01:38:38;;;;;;;18.75;12.05;;;;;;;;;;5024962;28;20679;-70
2023/06/12 01:41:05;;;;;;;20.27;13.43;;;;;;;;;;5024883;28;20047;-70
2023/06/12 01:43:30;;;;;;;18.05;12.38;;;;;;;;;;5025189;28;20108;-70
2023/06/12 01:45:56;;;;;;;16.63;11.75;;;;;;;;;;5017111;28;20112;-70
2023/06/12 01:48:21;;;;;;;21.92;12.07;;;;;;;;;;5025256;28;20033;-70
2023/06/12 01:50:47;;;;;;;16.88;11.65;;;;;;;;;;5024665;28;20021;-70
2023/06/12 01:53:15;;;;;;;20.83;12.25;;;;;;;;;;5023304;28;20033;-70
2023/06/12 01:55:41;;;;;;;23.23;13.70;;;;;;;;;;5024695;28;20039;-70
2023/06/12 01:58:07;;;;;;;17.73;11.70;;;;;;;;;;5024859;28;20029;-70
2023/06/12 02:00:32;;;;;;;18.30;11.43;;;;;;;;;;5025116;28;20033;-70
2023/06/12 02:02:57;;;;;;;18.25;11.77;;;;;;;;;;5025725;28;20103;-70
2023/06/12 02:05:23;;;;;;;22.10;14.00;;;;;;;;;;5025064;28;20041;-70
2023/06/12 02:07:48;;;;;;;26.20;15.73;;;;;;;;;;5025417;28;20410;-70
2023/06/12 02:10:15;;;;;;;20.70;13.68;;;;;;;;;;5024389;28;20022;-70
2023/06/12 02:12:41;;;;;;;21.48;14.07;;;;;;;;;;5025114;28;20052;-70
2023/06/12 02:15:07;;;;;;;19.45;11.43;;;;;;;;;;5025134;28;20029;-70
2023/06/12 02:17:32;;;;;;;19.27;11.98;;;;;;;;;;5024382;28;20099;-70
2023/06/12 02:19:58;;;;;;;18.25;12.70;;;;;;;;;;5024113;28;20025;-70
2023/06/12 02:22:23;;;;;;;21.35;13.82;;;;;;;;;;5026872;28;20826;-70
2023/06/12 02:24:50;;;;;;;21.38;13.25;;;;;;;;;;5026892;28;20554;-70
2023/06/12 02:27:15;;;;;;;22.15;13.63;;;;;;;;;;5025208;28;20025;-70
2023/06/12 02:29:40;;;;;;;18.08;11.75;;;;;;;;;;5025680;28;20075;-70
2023/06/12 02:32:06;;;;;;;19.33;12.40;;;;;;;;;;5023525;28;20029;-70
2023/06/12 02:34:31;;;;;;;18.02;11.80;;;;;;;;;;5026369;28;20025;-70
2023/06/12 02:36:58;;;;;;;19.50;12.70;;;;;;;;;;5029212;28;20026;-69
2023/06/12 02:39:23;;;;;;;25.83;13.30;;;;;;;;;;5027806;28;20163;-70
2023/06/12 02:41:49;;;;;;;19.65;12.93;;;;;;;;;;5029217;28;20793;-70
2023/06/12 02:44:15;;;;;;;23.55;13.57;;;;;;;;;;5027374;28;20098;-70
2023/06/12 02:46:55;;;;;;;29.40;16.42;;;;;;;;;;5028535;28;20021;-70
2023/06/12 02:49:22;;;;;;;22.30;13.98;;;;;;;;;;5028005;28;20101;-70
2023/06/12 02:51:47;;;;;;;18.98;12.35;;;;;;;;;;5028322;28;20026;-70
2023/06/12 02:54:14;;;;;;;21.85;12.32;;;;;;;;;;5028406;28;20021;-70
2023/06/12 02:56:44;;;;;;;17.10;11.82;;;;;;;;;;5028663;28;20029;-70
2023/06/12 02:59:11;;;;;;;17.35;11.50;;;;;;;;;;5028691;28;20017;-70
2023/06/12 03:01:43;;;;;;;22.25;13.13;;;;;;;;;;5026988;28;20029;-69
2023/06/12 03:04:10;;;;;;;19.83;12.43;;;;;;;;;;5016723;28;20622;-70
2023/06/12 03:06:35;;;;;;;20.35;12.90;;;;;;;;;;5026992;28;20860;-70
2023/06/12 03:09:03;;;;;;;20.73;13.13;;;;;;;;;;5027071;28;20022;-70
2023/06/12 03:11:29;;;;;;;27.30;16.30;;;;;;;;;;5027675;28;20308;-70
2023/06/12 03:13:54;;;;;;;28.27;16.80;;;;;;;;;;5028335;28;20056;-70
2023/06/12 03:16:22;;;;;;;25.25;15.45;;;;;;;;;;5028433;28;20061;-70
2023/06/12 03:18:47;;;;;;;23.10;13.55;;;;;;;;;;5028765;28;20083;-70
2023/06/12 03:21:14;;;;;;;21.00;13.20;;;;;;;;;;5027913;28;20045;-70
2023/06/12 03:23:39;;;;;;;26.98;14.30;;;;;;;;;;5027928;28;20111;-70
2023/06/12 03:26:05;;;;;;;22.95;14.05;;;;;;;;;;5026779;28;20068;-70
2023/06/12 03:28:30;;;;;;;27.00;15.93;;;;;;;;;;5027440;28;20034;-69
2023/06/12 03:30:55;;;;;;;21.50;13.27;;;;;;;;;;5018151;28;20022;-70
2023/06/12 03:33:21;;;;;;;22.30;14.05;;;;;;;;;;5018622;28;20026;-70
2023/06/12 03:35:46;;;;;;;24.45;13.55;;;;;;;;;;5027812;28;20030;-70
2023/06/12 03:38:11;;;;;;;27.63;16.73;;;;;;;;;;5028416;28;20471;-69
2023/06/12 03:40:36;;;;;;;26.90;15.88;;;;;;;;;;5027426;28;20033;-70
2023/06/12 03:43:02;;;;;;;31.17;18.10;;;;;;;;;;5028454;28;20041;-70
2023/06/12 03:45:28;;;;;;;33.28;19.27;;;;;;;;;;5027603;28;20037;-70
2023/06/12 03:47:53;;;;;;;38.00;20.60;;;;;;;;;;5030405;28;20025;-69
2023/06/12 03:50:19;;;;;;;35.65;18.75;;;;;;;;;;5037441;28;20026;-70
2023/06/12 03:52:45;;;;;;;31.90;18.75;;;;;;;;;;5034721;28;20103;-70
2023/06/12 03:55:12;;;;;;;30.23;17.15;;;;;;;;;;5028877;28;20522;-70
2023/06/12 03:57:37;;;;;;;34.70;17.80;;;;;;;;;;5026827;28;20399;-69
2023/06/12 04:00:04;;;;;;;33.67;19.00;;;;;;;;;;5027552;28;20032;-70
2023/06/12 04:02:30;;;;;;;32.33;18.38;;;;;;;;;;5025847;28;20106;-70
2023/06/12 04:04:56;;;;;;;34.17;19.52;;;;;;;;;;5027026;28;20040;-69
2023/06/12 04:07:22;;;;;;;33.53;19.65;;;;;;;;;;5027453;28;20017;-70
2023/06/12 04:09:47;;;;;;;29.88;17.83;;;;;;;;;;5027546;28;20552;-70
2023/06/12 04:12:13;;;;;;;25.50;15.88;;;;;;;;;;5025713;28;20029;-70
2023/06/12 04:14:38;;;;;;;33.55;15.90;;;;;;;;;;5027418;28;20189;-70
2023/06/12 04:17:03;;;;;;;23.70;15.57;;;;;;;;;;5025317;28;20472;-70
2023/06/12 04:19:29;;;;;;;25.02;15.93;;;;;;;;;;5026624;28;20025;-70
2023/06/12 04:21:54;;;;;;;28.00;16.23;;;;;;;;;;5026283;28;20079;-70
2023/06/12 04:24:21;;;;;;;29.52;17.58;;;;;;;;;;5022430;28;20547;-70
2023/06/12 04:26:48;;;;;;;31.48;18.58;;;;;;;;;;5024616;28;20100;-70
2023/06/12 04:29:15;;;;;;;25.23;16.10;;;;;;;;;;5027300;28;20651;-70
2023/06/12 04:31:40;;;;;;;25.92;16.08;;;;;;;;;;5026419;28;20057;-69
2023/06/12 04:34:06;;;;;;;29.60;17.67;;;;;;;;;;5023073;28;20512;-70
2023/06/12 04:36:39;;;;;;;34.20;18.95;;;;;;;;;;5026991;28;20080;-70
2023/06/12 04:39:11;;;;;;;35.05;20.77;;;;;;;;;;5026316;28;20116;-70
2023/06/12 04:41:37;;;;;;;33.17;19.02;;;;;;;;;;5026917;28;20039;-70
2023/06/12 04:44:03;;;;;;;32.63;19.13;;;;;;;;;;5026809;28;20033;-70
2023/06/12 04:46:29;;;;;;;30.70;18.05;;;;;;;;;;5020112;28;20026;-70
2023/06/12 04:48:54;;;;;;;36.17;19.02;;;;;;;;;;5024394;28;20025;-70
2023/06/12 04:51:19;;;;;;;34.08;19.70;;;;;;;;;;5019917;28;20026;-70
2023/06/12 04:53:47;;;;;;;33.65;20.02;;;;;;;;;;5014002;28;20025;-70
2023/06/12 04:56:20;;;;;;;36.03;19.90;;;;;;;;;;5021561;28;20479;-70
2023/06/12 04:58:46;;;;;;;36.83;20.38;;;;;;;;;;5025307;28;20069;-70
2023/06/12 05:01:11;;;;;;;37.63;21.23;;;;;;;;;;5025019;28;20511;-70
2023/06/12 05:03:38;;;;;;;36.08;21.17;;;;;;;;;;5014125;28;20184;-70
2023/06/12 05:06:06;;;;;;;32.80;19.85;;;;;;;;;;5025106;28;20032;-70
2023/06/12 05:08:31;;;;;;;33.47;20.25;;;;;;;;;;5026551;28;20105;-70
2023/06/12 05:10:57;;;;;;;32.85;18.40;;;;;;;;;;5025007;28;20104;-70
2023/06/12 05:13:22;;;;;;;30.50;17.67;;;;;;;;;;5025324;28;20031;-70
2023/06/12 05:15:47;;;;;;;29.70;17.70;;;;;;;;;;5017921;28;20022;-70
2023/06/12 05:18:13;;;;;;;28.13;16.17;;;;;;;;;;5037600;28;20024;-70
2023/06/12 05:20:38;;;;;;;28.95;16.40;;;;;;;;;;5026721;28;20033;-70
2023/06/12 05:23:05;;;;;;;31.20;17.17;;;;;;;;;;5026318;28;20689;-70
2023/06/12 05:25:30;;;;;;;28.83;16.00;;;;;;;;;;5024937;28;20032;-71
2023/06/12 05:27:56;;;;;;;26.00;16.15;;;;;;;;;;5024190;28;20025;-70
2023/06/12 05:30:21;;;;;;;22.88;14.95;;;;;;;;;;5019825;28;20522;-71
2023/06/12 05:32:46;;;;;;;26.55;15.15;;;;;;;;;;5018698;28;20029;-70
2023/06/12 05:35:12;;;;;;;25.00;14.30;;;;;;;;;;5020259;28;20033;-71
2023/06/12 05:37:37;;;;;;;24.80;14.82;;;;;;;;;;5019910;28;20466;-71
2023/06/12 05:40:05;;;;;;;22.13;13.82;;;;;;;;;;5023687;28;20111;-70
2023/06/12 05:42:31;;;;;;;20.67;13.80;;;;;;;;;;5023970;28;20021;-70
2023/06/12 05:44:56;;;;;;;20.23;12.85;;;;;;;;;;5024846;28;20469;-70
2023/06/12 05:47:21;;;;;;;20.52;12.52;;;;;;;;;;5019597;28;20033;-70
2023/06/12 05:49:47;;;;;;;19.77;12.85;;;;;;;;;;5013656;28;20728;-70
2023/06/12 05:52:12;;;;;;;18.60;12.18;;;;;;;;;;5014584;28;20512;-70
2023/06/12 05:54:37;;;;;;;18.70;11.63;;;;;;;;;;5016071;28;20032;-70
2023/06/12 05:57:03;;;;;;;17.05;11.65;;;;;;;;;;5018299;28;20060;-70
2023/06/12 05:59:28;;;;;;;17.00;11.23;;;;;;;;;;5016801;28;20021;-70
2023/06/12 06:01:57;;;;;;;16.35;11.25;;;;;;;;;;5015150;28;20026;-70
2023/06/12 06:04:22;;;;;;;17.85;11.23;;;;;;;;;;5023681;28;20103;-70
2023/06/12 06:06:48;;;;;;;17.95;11.43;;;;;;;;;;5017749;28;20578;-70
2023/06/12 06:09:15;;;;;;;17.63;11.07;;;;;;;;;;5023610;28;20018;-70
2023/06/12 06:11:40;;;;;;;17.30;10.93;;;;;;;;;;5024101;28;20587;-70
2023/06/12 06:14:05;;;;;;;16.85;11.13;;;;;;;;;;5020265;28;20506;-70
2023/06/12 06:16:31;;;;;;;13.85;9.43;;;;;;;;;;5020015;28;20021;-70
2023/06/12 06:18:56;;;;;;;16.33;10.23;;;;;;;;;;5018800;28;20025;-70
2023/06/12 06:21:21;;;;;;;16.42;10.88;;;;;;;;;;5019596;28;20515;-70
2023/06/12 06:23:47;;;;;;;18.40;11.02;;;;;;;;;;5023722;28;20029;-70
2023/06/12 06:26:12;;;;;;;22.48;11.38;;;;;;;;;;5024275;28;20475;-70
2023/06/12 06:28:38;;;;;;;17.15;10.13;;;;;;;;;;5024036;28;20497;-70
2023/06/12 06:31:08;;;;;;;16.77;11.02;;;;;;;;;;5022969;28;20061;-70
2023/06/12 06:33:34;;;;;;;16.83;11.07;;;;;;;;;;5019558;28;20029;-70
2023/06/12 06:35:59;;;;;;;17.05;11.93;;;;;;;;;;5017675;28;20906;-70
2023/06/12 06:38:25;;;;;;;17.33;11.27;;;;;;;;;;5016445;28;20032;-69
2023/06/12 06:40:53;;;;;;;15.98;11.27;;;;;;;;;;5025567;28;20033;-70
2023/06/12 06:43:19;;;;;;;13.75;10.20;;;;;;;;;;5030397;28;20022;-70
2023/06/12 06:45:44;;;;;;;13.63;10.15;;;;;;;;;;5036906;28;20026;-70
2023/06/12 06:48:12;;;;;;;24.35;10.57;;;;;;;;;;5024871;28;20116;-70
2023/06/12 06:50:37;;;;;;;14.55;9.63;;;;;;;;;;5024128;28;20052;-70
2023/06/12 06:53:02;;;;;;;13.02;9.15;;;;;;;;;;5024751;28;20060;-70
2023/06/12 06:55:28;;;;;;;12.70;9.30;;;;;;;;;;5023143;28;20032;-70
2023/06/12 06:57:54;;;;;;;18.65;9.75;;;;;;;;;;5014194;28;20076;-69
2023/06/12 07:00:21;;;;;;;15.50;9.93;;;;;;;;;;5012047;28;20042;-69
2023/06/12 07:02:47;;;;;;;20.85;9.68;;;;;;;;;;5021508;28;20045;-69
2023/06/12 07:05:14;;;;;;;20.23;10.23;;;;;;;;;;5023533;28;20033;-69
2023/06/12 07:07:39;;;;;;;17.83;9.43;;;;;;;;;;5020940;28;20029;-69
2023/06/12 07:10:06;;;;;;;19.10;8.32;;;;;;;;;;5024900;28;20022;-69
2023/06/12 07:12:33;;;;;;;18.48;8.93;;;;;;;;;;5012516;28;20116;-69
2023/06/12 07:14:59;;;;;;;15.18;9.88;;;;;;;;;;5023728;28;20037;-70
2023/06/12 07:17:24;;;;;;;14.07;9.95;;;;;;;;;;5024576;28;20542;-70
2023/06/12 07:19:49;;;;;;;14.73;9.95;;;;;;;;;;5015893;28;20022;-70
2023/06/12 07:22:15;;;;;;;14.65;9.82;;;;;;;;;;5017739;28;20395;-70
2023/06/12 07:24:41;;;;;;;19.15;9.90;;;;;;;;;;5018006;28;20442;-70
2023/06/12 07:27:06;;;;;;;17.33;9.30;;;;;;;;;;5019713;28;20037;-70
2023/06/12 07:29:32;;;;;;;14.80;9.30;;;;;;;;;;5023759;28;20037;-70
2023/06/12 07:31:57;;;;;;;11.95;9.20;;;;;;;;;;5026951;28;20458;-71
2023/06/12 07:34:23;;;;;;;22.92;9.70;;;;;;;;;;5025124;28;20025;-70
2023/06/12 07:36:48;;;;;;;12.82;8.20;;;;;;;;;;5027270;28;20048;-69
2023/06/12 07:39:13;;;;;;;11.57;8.30;;;;;;;;;;5026527;28;20025;-70
2023/06/12 07:41:40;;;;;;;14.23;9.00;;;;;;;;;;5025940;28;20833;-70
2023/06/12 07:44:06;;;;;;;10.27;7.80;;;;;;;;;;5016467;28;20075;-70
2023/06/12 07:46:32;;;;;;;15.48;8.10;;;;;;;;;;5026578;28;20454;-70
2023/06/12 07:48:57;;;;;;;14.10;8.00;;;;;;;;;;5021763;28;20036;-70
2023/06/12 07:51:22;;;;;;;13.02;8.75;;;;;;;;;;5011778;28;20104;-70
2023/06/12 07:53:49;;;;;;;16.08;8.27;;;;;;;;;;5021020;28;20057;-71
2023/06/12 07:56:16;;;;;;;14.27;8.00;;;;;;;;;;5026828;28;20021;-70
2023/06/12 07:58:42;;;;;;;19.45;8.27;;;;;;;;;;5026749;28;20025;-70
2023/06/12 08:01:07;;;;;;;12.95;8.38;;;;;;;;;;5026121;28;20036;-70
2023/06/12 08:03:38;;;;;;;13.45;7.95;;;;;;;;;;5024355;28;20110;-70
2023/06/12 08:06:13;;;;;;;13.98;7.88;;;;;;;;;;5024241;28;20029;-70
2023/06/12 08:08:43;;;;;;;11.23;7.88;;;;;;;;;;5019283;28;20502;-70
2023/06/12 08:11:10;;;;;;;13.57;8.50;;;;;;;;;;5033693;28;20044;-70
2023/06/12 08:13:35;;;;;;;10.25;8.00;;;;;;;;;;5011801;28;20609;-70
2023/06/12 08:16:02;;;;;;;12.52;7.70;;;;;;;;;;5025788;28;20028;-70
2023/06/12 08:18:27;;;;;;;10.00;7.90;;;;;;;;;;5025127;28;20024;-70
2023/06/12 08:20:52;;;;;;;18.17;9.18;;;;;;;;;;5025809;28;20021;-70
2023/06/12 08:23:18;;;;;;;15.93;8.27;;;;;;;;;;5025624;28;20400;-70
2023/06/12 08:25:43;;;;;;;14.35;8.00;;;;;;;;;;5026818;28;20091;-70
2023/06/12 08:28:09;;;;;;;9.85;7.25;;;;;;;;;;5024511;28;20071;-70
2023/06/12 08:30:34;;;;;;;13.90;7.28;;;;;;;;;;5024841;28;20030;-70
2023/06/12 08:33:00;;;;;;;10.80;7.28;;;;;;;;;;5017288;28;20648;-70
2023/06/12 08:35:25;;;;;;;10.82;6.93;;;;;;;;;;5022545;28;20029;-70
2023/06/12 08:37:50;;;;;;;14.18;7.35;;;;;;;;;;5027934;28;20161;-70
2023/06/12 08:40:16;;;;;;;10.90;7.35;;;;;;;;;;5023731;28;20455;-69
2023/06/12 08:42:48;;;;;;;10.50;7.50;;;;;;;;;;5015778;28;20029;-70
2023/06/12 08:45:17;;;;;;;11.57;6.63;;;;;;;;;;5019403;28;20029;-70
2023/06/12 08:47:46;;;;;;;11.57;7.22;;;;;;;;;;5025093;28;20025;-70
2023/06/12 08:50:12;;;;;;;10.52;7.82;;;;;;;;;;5014154;28;20048;-70
2023/06/12 08:52:38;;;;;;;10.68;7.85;;;;;;;;;;5017436;28;20056;-70
2023/06/12 08:55:07;;;;;;;11.88;7.75;;;;;;;;;;5023887;28;20073;-70
2023/06/12 08:57:34;;;;;;;10.82;7.82;;;;;;;;;;5021119;28;20032;-70
2023/06/12 09:00:00;;;;;;;11.13;7.82;;;;;;;;;;5014218;28;20510;-70
2023/06/12 09:02:27;;;;;;;11.75;6.80;;;;;;;;;;5015960;28;20029;-70
2023/06/12 09:05:03;;;;;;;10.70;7.40;;;;;;;;;;5020399;28;20029;-70
2023/06/12 09:07:33;;;;;;;10.32;7.30;;;;;;;;;;5025814;28;20021;-70
2023/06/12 09:09:58;;;;;;;10.60;7.97;;;;;;;;;;5024541;28;20735;-70
2023/06/12 09:12:23;;;;;;;10.80;7.40;;;;;;;;;;5019355;28;20025;-70
2023/06/12 09:14:50;;;;;;;10.52;7.47;;;;;;;;;;5016962;28;20446;-70
2023/06/12 09:17:16;;;;;;;10.60;7.45;;;;;;;;;;5025838;28;20029;-70
2023/06/12 09:19:45;;;;;;;11.13;7.68;;;;;;;;;;5025948;28;20051;-70
2023/06/12 09:22:12;;;;;;;9.93;7.65;;;;;;;;;;5019298;28;20045;-70
2023/06/12 09:24:38;;;;;;;10.13;7.60;;;;;;;;;;5020698;28;20034;-70
2023/06/12 09:27:04;;;;;;;8.40;7.30;;;;;;;;;;5024928;28;20060;-70
2023/06/12 09:29:32;;;;;;;9.55;7.53;;;;;;;;;;5024631;28;20056;-70
2023/06/12 09:32:02;;;;;;;13.23;7.95;;;;;;;;;;5026471;28;20073;-70
2023/06/12 09:34:28;;;;;;;11.00;7.72;;;;;;;;;;5022179;28;20025;-70
2023/06/12 09:36:55;;;;;;;10.80;8.02;;;;;;;;;;5024883;28;20040;-70
2023/06/12 09:39:26;;;;;;;10.48;7.72;;;;;;;;;;5039193;28;20060;-70
2023/06/12 09:41:51;;;;;;;9.63;7.35;;;;;;;;;;5024101;28;20034;-70
2023/06/12 09:44:28;;;;;;;8.73;7.10;;;;;;;;;;5014543;28;20116;-70
2023/06/12 09:46:58;;;;;;;11.65;7.88;;;;;;;;;;5016394;28;20103;-70
2023/06/12 09:49:23;;;;;;;11.13;7.60;;;;;;;;;;5016021;28;20060;-70
2023/06/12 09:51:50;;;;;;;12.52;7.38;;;;;;;;;;5018927;28;20409;-70
2023/06/12 09:54:17;;;;;;;10.10;7.63;;;;;;;;;;5025555;28;20031;-70
2023/06/12 09:56:45;;;;;;;9.20;7.40;;;;;;;;;;5024767;28;20466;-70
2023/06/12 09:59:18;;;;;;;9.75;7.75;;;;;;;;;;5021550;28;20121;-71
2023/06/12 10:01:51;;;;;;;9.63;7.80;;;;;;;;;;5024850;28;20032;-71
2023/06/12 10:04:38;;;;;;;;;;;;;;;;;;5024323;28;20618;-71
2023/06/12 10:07:11;;;;;;;10.38;7.45;;;;;;;;;;5025437;28;20477;-72
2023/06/12 10:09:39;;;;;;;9.00;7.88;;;;;;;;;;5024765;28;20121;-71
2023/06/12 10:12:05;;;;;;;13.80;8.20;;;;;;;;;;5014235;28;20030;-72
2023/06/12 10:14:31;;;;;;;10.77;7.00;;;;;;;;;;5018881;28;20658;-72
2023/06/12 10:16:57;;;;;;;9.90;7.40;;;;;;;;;;5024899;28;20045;-72
2023/06/12 10:19:25;;;;;;;8.88;7.22;;;;;;;;;;5023772;28;20036;-72
2023/06/12 10:21:54;;;;;;;11.10;7.75;;;;;;;;;;5023734;28;20033;-72
2023/06/12 10:24:23;;;;;;;13.45;7.93;;;;;;;;;;5024770;28;20125;-72
2023/06/12 10:26:51;;;;;;;11.57;7.97;;;;;;;;;;5024631;28;20025;-71
2023/06/12 10:29:31;;;;;;;8.60;7.70;;;;;;;;;;5021984;28;20021;-72
2023/06/12 10:32:07;;;;;;;13.30;8.00;;;;;;;;;;5022199;28;20430;-71
2023/06/12 10:34:34;;;;;;;10.05;7.60;;;;;;;;;;5021620;28;20025;-71
2023/06/12 10:37:23;;;;;;;11.10;7.40;;;;;;;;;;5021903;28;20026;-70
2023/06/12 10:40:15;;;;;;;9.90;7.50;;;;;;;;;;5024182;28;20052;-71
2023/06/12 10:42:55;;;;;;;11.63;7.20;;;;;;;;;;5023248;28;20060;-71
2023/06/12 10:45:25;;;;;;;13.95;7.22;;;;;;;;;;5022826;28;20499;-70
2023/06/12 10:48:06;;;;;;;10.18;7.10;;;;;;;;;;5022462;28;20018;-71
2023/06/12 10:50:45;;;;;;;9.25;7.10;;;;;;;;;;5021903;28;20104;-70
2023/06/12 10:53:13;;;;;;;7.90;6.38;;;;;;;;;;5022674;28;20025;-71
2023/06/12 10:55:38;;;;;;;9.18;6.57;;;;;;;;;;5024547;28;20076;-72
2023/06/12 10:58:15;;;;;;;10.85;6.68;;;;;;;;;;5028858;28;20037;-72
2023/06/12 11:00:50;;;;;;;11.00;6.95;;;;;;;;;;5028250;28;20022;-75
2023/06/12 11:03:21;;;;;;;8.13;7.10;;;;;;;;;;5030742;28;20113;-73
2023/06/12 11:05:51;;;;;;;8.07;6.28;;;;;;;;;;5040737;28;20762;-75
2023/06/12 11:08:17;;;;;;;9.70;6.63;;;;;;;;;;5030672;28;20434;-76
2023/06/12 11:10:43;;;;;;;8.52;6.75;;;;;;;;;;5028101;28;20021;-69
2023/06/12 11:13:09;;;;;;;11.10;7.65;;;;;;;;;;5021040;28;20022;-71
2023/06/12 11:15:44;;;;;;;10.73;6.90;;;;;;;;;;5026549;28;20136;-69
2023/06/12 11:18:12;;;;;;;9.30;6.68;;;;;;;;;;5025233;28;20021;-69
2023/06/12 11:20:38;;;;;;;9.88;7.00;;;;;;;;;;5025944;28;20140;-70
2023/06/12 11:23:03;;;;;;;10.70;6.82;;;;;;;;;;5026761;28;20029;-70
2023/06/12 11:25:43;;;;;;;9.63;6.78;;;;;;;;;;5026734;28;20029;-69
2023/06/12 11:28:09;;;;;;;8.02;6.32;;;;;;;;;;5018206;28;20646;-69
2023/06/12 11:30:34;;;;;;;7.57;6.68;;;;;;;;;;5023475;28;20107;-70
2023/06/12 11:33:13;;;;;;;8.65;7.10;;;;;;;;;;5026636;28;20433;-69
2023/06/12 11:35:43;;;;;;;11.80;6.68;;;;;;;;;;5020051;28;20411;-68
2023/06/12 11:38:12;;;;;;;8.25;5.78;;;;;;;;;;5025848;28;20087;-69
2023/06/12 11:40:38;;;;;;;9.10;6.35;;;;;;;;;;5027427;28;20764;-69
2023/06/12 11:43:04;;;;;;;7.38;5.97;;;;;;;;;;5026587;28;20079;-69
2023/06/12 11:45:31;;;;;;;11.70;7.15;;;;;;;;;;5022669;28;20067;-69
2023/06/12 11:47:57;;;;;;;10.07;5.95;;;;;;;;;;5027378;28;20112;-69
2023/06/12 11:50:23;;;;;;;9.02;6.05;;;;;;;;;;5025777;28;20120;-69
2023/06/12 11:52:50;;;;;;;9.30;6.40;;;;;;;;;;5025626;28;20447;-69
2023/06/12 11:55:16;;;;;;;7.53;6.43;;;;;;;;;;5023304;28;20399;-70
2023/06/12 11:57:48;;;;;;;8.43;5.30;;;;;;;;;;5025623;28;20047;-68
2023/06/12 12:00:20;;;;;;;7.45;5.72;;;;;;;;;;5027318;28;20527;-69
2023/06/12 12:02:49;;;;;;;9.23;5.80;;;;;;;;;;5026825;28;20060;-69
2023/06/12 12:05:17;;;;;;;8.35;6.40;;;;;;;;;;5026850;28;20036;-69
2023/06/12 12:07:46;;;;;;;8.63;5.80;;;;;;;;;;5026264;28;20017;-69
2023/06/12 12:10:12;;;;;;;11.35;6.10;;;;;;;;;;5025681;28;20029;-69
2023/06/12 12:13:02;;;;;;;9.57;6.47;;;;;;;;;;5027180;28;20025;-70
2023/06/12 12:15:30;;;;;;;6.95;6.03;;;;;;;;;;5022605;28;20410;-70
2023/06/12 12:17:56;;;;;;;7.65;5.63;;;;;;;;;;5027017;28;20099;-69
2023/06/12 12:20:23;;;;;;;6.32;5.28;;;;;;;;;;5027400;28;20466;-69
2023/06/12 12:22:51;;;;;;;7.32;5.65;;;;;;;;;;5019056;28;20025;-69
2023/06/12 12:25:22;;;;;;;8.30;5.50;;;;;;;;;;5017265;28;20458;-69
2023/06/12 12:27:50;;;;;;;8.50;5.88;;;;;;;;;;5029256;28;20024;-69
2023/06/12 12:30:17;;;;;;;8.45;5.63;;;;;;;;;;5035771;28;20458;-69
2023/06/12 12:32:45;;;;;;;7.03;5.30;;;;;;;;;;5042173;28;20032;-69
2023/06/12 12:35:11;;;;;;;6.45;5.30;;;;;;;;;;5035146;28;20107;-68
2023/06/12 12:37:37;;;;;;;7.00;5.38;;;;;;;;;;5027257;28;20032;-68
2023/06/12 12:40:08;;;;;;;6.70;5.45;;;;;;;;;;5026560;28;20036;-68
2023/06/12 12:42:34;;;;;;;7.75;5.13;;;;;;;;;;5026627;28;20491;-70
2023/06/12 12:44:59;;;;;;;11.20;5.80;;;;;;;;;;5025685;28;20033;-70
2023/06/12 12:47:24;;;;;;;6.32;5.22;;;;;;;;;;5026487;28;20026;-69
2023/06/12 12:49:49;;;;;;;7.13;5.40;;;;;;;;;;5025494;28;20056;-70
2023/06/12 12:52:15;;;;;;;9.10;5.38;;;;;;;;;;5025165;28;20025;-69
2023/06/12 12:54:40;;;;;;;6.35;5.40;;;;;;;;;;5025780;28;20045;-71
2023/06/12 12:57:08;;;;;;;7.20;5.60;;;;;;;;;;5026040;28;20064;-70
2023/06/12 12:59:34;;;;;;;6.45;5.63;;;;;;;;;;5025710;28;20025;-70
2023/06/12 13:01:59;;;;;;;10.77;6.15;;;;;;;;;;5025697;28;20021;-70
2023/06/12 13:04:25;;;;;;;8.98;6.00;;;;;;;;;;5024159;28;20558;-70
2023/06/12 13:06:51;;;;;;;16.10;5.68;;;;;;;;;;5025561;28;20403;-70
2023/06/12 13:09:16;;;;;;;6.95;5.40;;;;;;;;;;5024087;28;20083;-70
2023/06/12 13:11:42;;;;;;;6.80;5.50;;;;;;;;;;5025418;28;20013;-70
2023/06/12 13:14:07;;;;;;;5.80;4.85;;;;;;;;;;5026183;28;20029;-69
2023/06/12 13:16:32;;;;;;;9.18;5.55;;;;;;;;;;5025215;28;20024;-70
2023/06/12 13:18:58;;;;;;;6.95;5.43;;;;;;;;;;5024435;28;20025;-70
2023/06/12 13:21:23;;;;;;;6.45;5.15;;;;;;;;;;5025191;28;20471;-70
2023/06/12 13:23:48;;;;;;;6.43;5.63;;;;;;;;;;5022735;28;20108;-70
2023/06/12 13:26:14;;;;;;;6.90;5.45;;;;;;;;;;5025814;28;20032;-70
2023/06/12 13:28:39;;;;;;;10.63;5.10;;;;;;;;;;5025263;28;20040;-70
2023/06/12 13:31:04;;;;;;;7.07;5.28;;;;;;;;;;5025066;28;20019;-70
2023/06/12 13:33:30;;;;;;;17.73;9.48;;;;;;;;;;5025600;28;20041;-69
2023/06/12 13:35:55;;;;;;;10.00;6.95;;;;;;;;;;5025800;28;20049;-69
2023/06/12 13:38:20;;;;;;;7.88;6.07;;;;;;;;;;5025867;28;20411;-70
2023/06/12 13:40:46;;;;;;;14.68;9.85;;;;;;;;;;5025477;28;20040;-70
2023/06/12 13:43:11;;;;;;;24.92;8.77;;;;;;;;;;5025438;28;20029;-70
2023/06/12 13:45:37;;;;;;;9.57;6.53;;;;;;;;;;5025887;28;20032;-70
2023/06/12 13:48:03;;;;;;;11.60;8.07;;;;;;;;;;5025975;28;20029;-69
2023/06/12 13:50:29;;;;;;;7.00;5.85;;;;;;;;;;5025670;28;20027;-70
2023/06/12 13:52:55;;;;;;;15.57;8.43;;;;;;;;;;5026642;28;20033;-70
2023/06/12 13:55:20;;;;;;;8.15;5.95;;;;;;;;;;5025683;28;20021;-72
2023/06/12 13:57:46;;;;;;;9.50;6.32;;;;;;;;;;5023280;28;20086;-74
2023/06/12 14:00:12;;;;;;;6.43;5.82;;;;;;;;;;5032163;28;20060;-75
2023/06/12 14:02:37;;;;;;;14.68;6.80;;;;;;;;;;5011572;28;20025;-75
2023/06/12 14:05:03;;;;;;;16.65;9.32;;;;;;;;;;5025482;28;20510;-76
2023/06/12 14:07:28;;;;;;;9.48;7.03;;;;;;;;;;5023557;28;20081;-76
2023/06/12 14:09:53;;;;;;;8.05;6.18;;;;;;;;;;5025065;28;20465;-73
2023/06/12 14:12:19;;;;;;;8.57;5.38;;;;;;;;;;5024655;28;20570;-74
2023/06/12 14:14:47;;;;;;;11.18;7.32;;;;;;;;;;5024225;28;20032;-74
2023/06/12 14:17:12;;;;;;;7.35;5.60;;;;;;;;;;5022881;28;20025;-73
2023/06/12 14:19:38;;;;;;;5.38;4.90;;;;;;;;;;5019591;28;20086;-70
2023/06/12 14:22:04;;;;;;;7.38;5.57;;;;;;;;;;5024675;28;20033;-71
2023/06/12 14:24:29;;;;;;;7.07;5.40;;;;;;;;;;5021722;28;20105;-71
2023/06/12 14:26:56;;;;;;;9.05;5.60;;;;;;;;;;5024392;28;20076;-71
2023/06/12 14:29:22;;;;;;;8.10;6.57;;;;;;;;;;5024099;28;20712;-71